Etusivu
METAR-TAF:

METAR-TAF

Lentoasemat :

Fairmont Municipal Airport

Fairmont, Minnesota, Yhdysvallat

Leveyspiiri: 43-39N, Pituuspiiri: 094-25W, korkeus merenpinnasta: 354 m

Tämänhetkinen sää

Tämä raportti tehtiin 59 minuuttia sitten, kello 22.56 UTC
Tuuli 21 kn pohjoisen/luoteesta puuskistuen 26 kn:hen
Lämpötila 19°C
Kosteus 30%
Ilmanpaine 1012 hPa
Näkyvyys: 16.1 km
selkeää

METAR: KFRM 252256Z AUTO 33021G26KT 10SM CLR 19/01 A2989 RMK AO2 PK WND 34030/2207 SLP124 T01940006

Aika: 18:55 (23:55 UTC)


TAF: puuttuu

Säähavainnot ja -ennusteet yli 4000 lentoasemalta (METAR- ja TAF-raportit).

Käytössä olevat sääasemat on merkitty karttaan keltaisilla ja punaisilla pisteillä.

Aseta hiiri pisteen päälle nähdäksesi sääaseman nimen.

Klikkaa sitten nähdäksesi säähavainnot ja -ennusteet.

Kartan vaihtaminen: klikkaa mustalla rastilla varustettuja vihreitä pisteitä, niin voit zoomata sisään; viivalla varustettua vihreää pistettä, niin voit zoomata ulos tai vihreitä nuolia, niin pääset viereisille kartoille.


METAR-TAF: